createdAt,value
2023-04-16T00:01:04.906Z,19.68
2023-04-16T00:03:35.460Z,19.58
2023-04-16T00:06:07.187Z,19.58
2023-04-16T00:08:37.146Z,19.54
2023-04-16T00:11:07.586Z,19.49
2023-04-16T00:13:37.678Z,19.51
2023-04-16T00:16:08.491Z,19.53
2023-04-16T00:18:38.436Z,19.61
2023-04-16T00:21:09.459Z,19.63
2023-04-16T00:23:39.566Z,19.56
2023-04-16T00:26:10.766Z,19.49
2023-04-16T00:28:42.746Z,19.43
2023-04-16T00:31:13.073Z,19.37
2023-04-16T00:33:43.036Z,19.44
2023-04-16T00:36:12.838Z,19.36
2023-04-16T00:38:43.244Z,19.31
2023-04-16T00:41:13.230Z,19.24
2023-04-16T00:43:44.503Z,19.21
2023-04-16T00:46:14.672Z,19.29
2023-04-16T00:48:46.403Z,19.40
2023-04-16T00:51:17.071Z,19.37
2023-04-16T00:53:48.422Z,19.36
2023-04-16T00:56:18.704Z,19.37
2023-04-16T00:58:49.247Z,19.42
2023-04-16T01:01:19.249Z,19.34
2023-04-16T01:03:51.406Z,19.28
2023-04-16T01:06:21.974Z,19.09
2023-04-16T01:08:52.312Z,18.96
2023-04-16T01:11:22.679Z,18.89
2023-04-16T01:13:53.055Z,18.88
2023-04-16T01:16:23.534Z,18.85
2023-04-16T01:18:54.062Z,18.75
2023-04-16T01:21:23.830Z,18.77
2023-04-16T01:23:54.223Z,18.77
2023-04-16T01:26:24.315Z,18.71
2023-04-16T01:28:54.644Z,18.74
2023-04-16T01:31:24.659Z,18.71
2023-04-16T01:34:17.610Z,18.65
2023-04-16T01:36:47.926Z,18.64
2023-04-16T01:39:20.392Z,18.65
2023-04-16T01:41:50.763Z,18.60
2023-04-16T01:44:21.372Z,18.58
2023-04-16T01:46:51.410Z,18.53
2023-04-16T01:49:23.290Z,18.54
2023-04-16T01:51:54.100Z,18.54
2023-04-16T01:54:24.511Z,18.57
2023-04-16T01:56:54.452Z,18.54
2023-04-16T01:59:24.835Z,18.47
2023-04-16T02:01:55.368Z,18.35
2023-04-16T02:04:25.832Z,18.27
2023-04-16T02:06:55.731Z,18.23
2023-04-16T02:09:26.094Z,18.22
2023-04-16T02:11:55.996Z,18.20
2023-04-16T02:14:26.813Z,18.22
2023-04-16T02:16:57.032Z,18.34
2023-04-16T02:19:41.429Z,18.28
2023-04-16T02:22:12.710Z,18.32
2023-04-16T02:24:43.056Z,18.25
2023-04-16T02:27:15.113Z,18.29
2023-04-16T02:29:45.796Z,18.29
2023-04-16T02:32:19.614Z,18.33
2023-04-16T02:34:49.964Z,18.38
2023-04-16T02:37:20.094Z,18.48
2023-04-16T02:39:54.415Z,18.57
2023-04-16T02:42:24.329Z,18.47
2023-04-16T02:44:54.118Z,18.27
2023-04-16T02:47:24.533Z,18.29
2023-04-16T02:49:54.554Z,18.17
2023-04-16T02:52:24.904Z,17.97
2023-04-16T02:54:54.879Z,17.85
2023-04-16T02:57:25.233Z,17.84
2023-04-16T02:59:54.949Z,17.77
2023-04-16T03:02:25.489Z,17.76
2023-04-16T03:04:56.711Z,17.83
2023-04-16T03:07:27.977Z,17.75
2023-04-16T03:09:58.091Z,17.85
2023-04-16T03:12:28.556Z,17.85
2023-04-16T03:14:58.574Z,17.99
2023-04-16T03:17:28.932Z,18.13
2023-04-16T03:19:58.932Z,18.29
2023-04-16T03:22:29.379Z,18.30
2023-04-16T03:24:59.108Z,18.38
2023-04-16T03:27:29.501Z,18.19
2023-04-16T03:29:59.282Z,18.23
2023-04-16T03:32:30.801Z,18.30
2023-04-16T03:35:00.866Z,18.29
2023-04-16T03:37:31.982Z,18.29
2023-04-16T03:40:02.428Z,18.29
2023-04-16T03:42:33.740Z,18.37
2023-04-16T03:45:03.776Z,18.32
2023-04-16T03:47:34.790Z,18.22
2023-04-16T03:50:06.668Z,18.12
2023-04-16T03:52:38.121Z,17.88
2023-04-16T03:55:08.511Z,17.74
2023-04-16T03:57:39.054Z,17.73
2023-04-16T04:00:13.832Z,17.64
2023-04-16T04:02:44.146Z,17.63
2023-04-16T04:05:20.629Z,17.63
2023-04-16T04:07:51.704Z,17.62
2023-04-16T04:10:21.672Z,17.70
2023-04-16T04:12:52.150Z,17.76
2023-04-16T04:15:22.046Z,17.73
2023-04-16T04:17:52.827Z,17.74
2023-04-16T04:20:22.968Z,17.87
2023-04-16T04:22:54.866Z,18.09
2023-04-16T04:25:27.869Z,18.01
2023-04-16T04:27:58.216Z,18.16
2023-04-16T04:30:28.093Z,18.25
2023-04-16T04:32:58.587Z,18.33
2023-04-16T04:35:28.668Z,18.24
2023-04-16T04:37:58.535Z,18.27
2023-04-16T04:40:30.492Z,18.30
2023-04-16T04:43:01.105Z,18.30
2023-04-16T04:45:32.015Z,18.15
2023-04-16T04:48:02.300Z,18.15
2023-04-16T04:50:32.939Z,18.22
2023-04-16T04:53:03.102Z,18.13
2023-04-16T04:55:33.497Z,18.19
2023-04-16T04:58:04.116Z,18.24
2023-04-16T05:00:35.552Z,18.24
2023-04-16T05:03:08.277Z,18.30
2023-04-16T05:05:39.167Z,18.48
2023-04-16T05:08:09.214Z,18.46
2023-04-16T05:10:39.495Z,18.34
2023-04-16T05:13:09.482Z,18.13
2023-04-16T05:15:40.090Z,17.89
2023-04-16T05:18:09.987Z,17.83
2023-04-16T05:20:40.334Z,17.71
2023-04-16T05:23:10.477Z,17.76
2023-04-16T05:25:40.760Z,17.58
2023-04-16T05:28:12.212Z,17.62
2023-04-16T05:30:42.562Z,17.68
2023-04-16T05:33:12.502Z,17.70
2023-04-16T05:35:42.857Z,17.65
2023-04-16T05:38:12.810Z,17.71
2023-04-16T05:40:43.318Z,17.78
2023-04-16T05:43:13.344Z,17.79
2023-04-16T05:45:43.697Z,17.90
2023-04-16T05:48:14.930Z,17.96
2023-04-16T05:50:45.435Z,17.95
2023-04-16T05:53:15.464Z,18.00
2023-04-16T05:55:45.846Z,18.07
2023-04-16T05:58:15.786Z,18.18
2023-04-16T06:00:46.492Z,18.26
2023-04-16T06:03:16.700Z,18.32
2023-04-16T06:05:47.805Z,18.26
2023-04-16T06:08:19.298Z,18.34
2023-04-16T06:10:50.505Z,18.36
2023-04-16T06:13:20.691Z,18.37
2023-04-16T06:15:51.177Z,18.30
2023-04-16T06:18:21.138Z,18.45
2023-04-16T06:20:51.617Z,18.61
2023-04-16T06:23:21.509Z,18.71
2023-04-16T06:25:51.851Z,18.80
2023-04-16T06:28:21.774Z,18.80
2023-04-16T06:30:52.119Z,18.75
2023-04-16T06:33:22.088Z,18.73
2023-04-16T06:35:52.418Z,18.72
2023-04-16T06:38:22.661Z,18.87
2023-04-16T06:40:53.095Z,18.73
2023-04-16T06:43:23.230Z,18.60
2023-04-16T06:45:53.652Z,18.62
2023-04-16T06:48:23.592Z,18.44
2023-04-16T06:50:53.980Z,18.28
2023-04-16T06:53:25.200Z,18.14
2023-04-16T06:55:55.586Z,18.11
2023-04-16T06:58:25.645Z,18.05
2023-04-16T07:00:56.106Z,18.02
2023-04-16T07:03:26.262Z,18.05
2023-04-16T07:05:56.743Z,18.05
2023-04-16T07:08:26.781Z,18.10
2023-04-16T07:10:57.294Z,18.20
2023-04-16T07:13:27.283Z,18.31
2023-04-16T07:15:57.600Z,18.39
2023-04-16T07:18:27.596Z,18.41
2023-04-16T07:20:57.985Z,18.51
2023-04-16T07:23:27.963Z,18.65
2023-04-16T07:25:58.383Z,18.69
2023-04-16T07:28:28.366Z,18.60
2023-04-16T07:30:58.868Z,18.54
2023-04-16T07:33:28.920Z,18.47
2023-04-16T07:35:59.273Z,18.51
2023-04-16T07:38:29.321Z,18.65
2023-04-16T07:40:59.729Z,18.57
2023-04-16T07:43:29.723Z,18.60
2023-04-16T07:46:00.127Z,18.52
2023-04-16T07:48:30.136Z,18.46
2023-04-16T07:51:00.498Z,18.52
2023-04-16T07:53:30.482Z,18.67
2023-04-16T07:56:00.866Z,18.73
2023-04-16T07:58:30.796Z,18.74
2023-04-16T08:01:01.210Z,18.69
2023-04-16T08:03:31.368Z,18.80
2023-04-16T08:06:01.994Z,18.83
2023-04-16T08:08:31.974Z,18.86
2023-04-16T08:11:02.365Z,18.71
2023-04-16T08:13:33.614Z,18.77
2023-04-16T08:16:04.228Z,18.73
2023-04-16T08:18:34.238Z,18.90
2023-04-16T08:21:04.016Z,19.00
2023-04-16T08:23:34.927Z,19.05
2023-04-16T08:26:04.846Z,19.09
2023-04-16T08:28:35.286Z,19.03
2023-04-16T08:31:05.099Z,19.03
2023-04-16T08:33:35.510Z,19.02
2023-04-16T08:36:05.550Z,19.02
2023-04-16T08:38:36.013Z,19.12
2023-04-16T08:41:10.766Z,19.03
2023-04-16T08:43:45.873Z,19.08
2023-04-16T08:46:19.122Z,19.13
2023-04-16T08:48:51.264Z,18.92
2023-04-16T08:51:22.940Z,18.90
2023-04-16T08:54:01.322Z,18.80
2023-04-16T08:56:33.617Z,18.69
2023-04-16T08:59:06.658Z,18.75
2023-04-16T09:01:37.684Z,18.79
2023-04-16T09:04:09.289Z,18.79
2023-04-16T09:06:42.508Z,18.86
2023-04-16T09:09:14.232Z,18.76
2023-04-16T09:11:45.465Z,18.61
2023-04-16T09:14:15.548Z,18.51
2023-04-16T09:16:50.885Z,18.50
2023-04-16T09:19:20.830Z,18.41
2023-04-16T09:21:52.206Z,18.55
2023-04-16T09:24:23.197Z,18.69
2023-04-16T09:26:56.001Z,18.62
2023-04-16T09:29:40.223Z,18.66
2023-04-16T09:32:13.198Z,18.66
2023-04-16T09:34:58.759Z,18.61
2023-04-16T09:37:30.933Z,18.67
2023-04-16T09:40:05.311Z,18.72
2023-04-16T09:42:38.366Z,18.85
2023-04-16T09:45:08.132Z,18.86
2023-04-16T09:47:42.600Z,18.72
2023-04-16T09:50:18.256Z,18.59
2023-04-16T09:52:52.689Z,18.65
2023-04-16T09:55:29.361Z,18.83
2023-04-16T09:58:03.639Z,18.88
2023-04-16T10:00:33.588Z,18.87
2023-04-16T10:03:08.131Z,18.86
2023-04-16T10:05:38.753Z,18.85
2023-04-16T10:08:16.054Z,18.86
2023-04-16T10:10:46.991Z,18.90
2023-04-16T10:13:18.786Z,18.86
2023-04-16T10:15:50.022Z,18.86
2023-04-16T10:18:20.190Z,18.83
2023-04-16T10:20:51.910Z,18.84
2023-04-16T10:23:23.507Z,18.85
2023-04-16T10:25:57.575Z,18.85
2023-04-16T10:28:30.095Z,18.89
2023-04-16T10:31:01.316Z,18.98
2023-04-16T10:33:36.896Z,19.21
2023-04-16T10:36:18.299Z,19.38
2023-04-16T10:38:58.256Z,19.53
2023-04-16T10:41:29.366Z,19.46
2023-04-16T10:44:13.765Z,19.53
2023-04-16T10:46:46.022Z,19.70
2023-04-16T10:49:17.324Z,19.89
2023-04-16T10:52:01.231Z,20.27
2023-04-16T10:54:36.766Z,20.72
2023-04-16T10:57:19.090Z,20.94
2023-04-16T10:59:50.502Z,20.98
2023-04-16T11:02:21.428Z,21.16
2023-04-16T11:04:51.768Z,21.49
2023-04-16T11:07:33.190Z,21.44
2023-04-16T11:10:06.516Z,21.24
2023-04-16T11:12:42.135Z,20.70
2023-04-16T11:15:23.926Z,21.30
2023-04-16T11:17:54.471Z,21.41
2023-04-16T11:20:29.140Z,21.60
2023-04-16T11:22:59.942Z,22.06
2023-04-16T11:25:31.902Z,22.81
2023-04-16T11:28:03.469Z,23.25
2023-04-16T11:30:37.905Z,23.48
2023-04-16T11:33:12.365Z,23.66
2023-04-16T11:35:44.376Z,23.71
2023-04-16T11:38:14.738Z,23.58
2023-04-16T11:40:44.478Z,23.93
2023-04-16T11:43:17.359Z,24.13
2023-04-16T11:46:00.160Z,24.54
2023-04-16T11:48:53.095Z,24.87
2023-04-16T11:51:24.358Z,25.40
2023-04-16T11:53:55.640Z,25.63
2023-04-16T11:56:33.822Z,25.78
2023-04-16T11:59:14.668Z,25.82
2023-04-16T12:01:51.697Z,26.70
2023-04-16T12:04:26.671Z,26.50
2023-04-16T12:07:16.113Z,26.94
2023-04-16T12:09:47.301Z,26.94
2023-04-16T12:12:32.052Z,27.42
2023-04-16T12:15:06.736Z,27.94
2023-04-16T12:17:37.857Z,28.60
2023-04-16T12:20:14.068Z,28.88
2023-04-16T12:22:50.537Z,28.96
2023-04-16T12:25:20.965Z,29.03
2023-04-16T12:27:54.690Z,29.26
2023-04-16T12:30:27.224Z,29.90
2023-04-16T12:33:20.066Z,29.67
2023-04-16T12:35:50.881Z,30.01
2023-04-16T12:38:22.823Z,30.36
2023-04-16T12:40:57.867Z,30.25
2023-04-16T12:43:27.933Z,30.52
2023-04-16T12:45:58.447Z,31.31
2023-04-16T12:48:28.468Z,31.52
2023-04-16T12:50:58.821Z,31.06
2023-04-16T12:53:29.020Z,31.09
2023-04-16T12:55:59.480Z,32.05
2023-04-16T12:58:29.792Z,32.53
2023-04-16T13:01:01.038Z,32.34
2023-04-16T13:03:32.049Z,32.30
2023-04-16T13:06:03.433Z,32.57
2023-04-16T13:08:33.365Z,32.82
2023-04-16T13:11:03.837Z,32.18
2023-04-16T13:13:33.923Z,31.46
2023-04-16T13:16:09.579Z,30.54
2023-04-16T13:18:39.733Z,29.97
2023-04-16T13:21:10.383Z,29.48
2023-04-16T13:23:40.391Z,29.45
2023-04-16T13:26:10.746Z,29.19
2023-04-16T13:28:40.673Z,29.98
2023-04-16T13:31:11.166Z,31.48
2023-04-16T13:33:41.338Z,30.53
2023-04-16T13:36:11.800Z,30.79
2023-04-16T13:38:41.958Z,30.91
2023-04-16T13:41:12.349Z,30.86
2023-04-16T13:43:42.273Z,30.76
2023-04-16T13:46:13.457Z,30.62
2023-04-16T13:48:43.438Z,30.74
2023-04-16T13:51:14.985Z,30.43
2023-04-16T13:53:44.936Z,30.54
2023-04-16T13:56:15.377Z,30.65
2023-04-16T13:58:45.342Z,31.08
2023-04-16T14:01:15.902Z,31.75
2023-04-16T14:03:46.114Z,32.04
2023-04-16T14:06:19.169Z,31.24
2023-04-16T14:08:49.073Z,32.56
2023-04-16T14:11:19.417Z,32.63
2023-04-16T14:13:49.363Z,32.85
2023-04-16T14:16:19.825Z,33.50
2023-04-16T14:18:49.885Z,33.50
2023-04-16T14:21:20.478Z,33.31
2023-04-16T14:23:50.879Z,32.75
2023-04-16T14:26:21.866Z,33.02
2023-04-16T14:28:52.892Z,33.31
2023-04-16T14:31:23.576Z,34.55
2023-04-16T14:33:53.478Z,34.66
2023-04-16T14:36:23.903Z,35.15
2023-04-16T14:38:53.887Z,34.15
2023-04-16T14:41:24.337Z,32.34
2023-04-16T14:43:54.979Z,32.08
2023-04-16T14:46:26.121Z,32.00
2023-04-16T14:48:56.575Z,32.59
2023-04-16T14:51:28.525Z,33.36
2023-04-16T14:53:58.503Z,34.51
2023-04-16T14:56:28.906Z,34.88
2023-04-16T14:58:58.907Z,36.08
2023-04-16T15:01:29.522Z,35.67
2023-04-16T15:04:01.985Z,33.03
2023-04-16T15:06:33.274Z,33.15
2023-04-16T15:09:05.166Z,32.27
2023-04-16T15:11:36.725Z,32.02
2023-04-16T15:14:06.654Z,32.54
2023-04-16T15:16:37.350Z,33.13
2023-04-16T15:19:07.508Z,34.25
2023-04-16T15:21:37.935Z,33.68
2023-04-16T15:24:08.354Z,34.22
2023-04-16T15:26:39.126Z,33.22
2023-04-16T15:29:09.044Z,34.32
2023-04-16T15:31:39.441Z,33.44
2023-04-16T15:34:09.478Z,33.52
2023-04-16T15:36:40.318Z,34.42
2023-04-16T15:39:10.722Z,35.17
2023-04-16T15:41:53.673Z,35.39
2023-04-16T15:44:31.263Z,35.03
2023-04-16T15:47:02.141Z,36.41
2023-04-16T15:49:32.104Z,35.42
2023-04-16T15:52:02.668Z,35.18
2023-04-16T15:54:33.169Z,35.37
2023-04-16T15:57:03.596Z,35.13
2023-04-16T15:59:33.920Z,35.07
2023-04-16T16:02:04.416Z,34.95
2023-04-16T16:04:34.682Z,33.52
2023-04-16T16:07:05.658Z,33.13
2023-04-16T16:09:35.625Z,32.83
2023-04-16T16:12:05.652Z,33.57
2023-04-16T16:14:36.560Z,34.65
2023-04-16T16:17:06.632Z,34.69
2023-04-16T16:19:36.456Z,34.31
2023-04-16T16:22:06.967Z,33.88
2023-04-16T16:24:36.985Z,35.21
2023-04-16T16:27:07.546Z,36.98
2023-04-16T16:29:37.508Z,38.26
2023-04-16T16:32:08.011Z,38.55
2023-04-16T16:34:38.488Z,38.22
2023-04-16T16:37:08.879Z,38.75
2023-04-16T16:39:39.074Z,38.35
2023-04-16T16:42:10.337Z,37.79
2023-04-16T16:44:40.572Z,38.56
2023-04-16T16:47:11.185Z,37.75
2023-04-16T16:49:41.228Z,36.52
2023-04-16T16:52:11.756Z,36.16
2023-04-16T16:54:43.765Z,38.10
2023-04-16T16:57:14.290Z,39.34
2023-04-16T16:59:44.264Z,40.16
2023-04-16T17:02:16.843Z,40.09
2023-04-16T17:04:47.073Z,39.72
2023-04-16T17:07:17.533Z,39.93
2023-04-16T17:09:47.656Z,39.06
2023-04-16T17:12:18.144Z,37.86
2023-04-16T17:14:52.774Z,37.37
2023-04-16T17:17:23.500Z,36.81
2023-04-16T17:19:53.529Z,36.34
2023-04-16T17:22:24.012Z,36.43
2023-04-16T17:24:54.005Z,36.77
2023-04-16T17:27:24.445Z,38.02
2023-04-16T17:30:00.850Z,38.95
2023-04-16T17:32:33.531Z,39.44
2023-04-16T17:35:05.277Z,39.09
2023-04-16T17:37:35.708Z,39.09
2023-04-16T17:40:08.454Z,38.83
2023-04-16T17:42:38.982Z,38.47
2023-04-16T17:45:09.460Z,38.17
2023-04-16T17:47:40.871Z,38.25
2023-04-16T17:50:12.009Z,37.45
2023-04-16T17:52:42.516Z,36.92
2023-04-16T17:55:13.243Z,36.52
2023-04-16T17:57:43.792Z,36.63
2023-04-16T18:00:15.360Z,36.78
2023-04-16T18:02:46.550Z,37.58
2023-04-16T18:05:16.808Z,37.41
2023-04-16T18:07:48.278Z,36.80
2023-04-16T18:10:19.046Z,35.81
2023-04-16T18:12:50.253Z,34.99
2023-04-16T18:15:20.334Z,33.86
2023-04-16T18:17:50.814Z,33.48
2023-04-16T18:20:20.957Z,33.01
2023-04-16T18:22:51.519Z,32.68
2023-04-16T18:25:32.218Z,32.41
2023-04-16T18:28:06.298Z,31.86
2023-04-16T18:30:40.040Z,31.49
2023-04-16T18:33:39.016Z,31.21
2023-04-16T18:36:04.135Z,30.77
2023-04-16T18:38:36.226Z,30.26
2023-04-16T18:41:18.433Z,29.88
2023-04-16T18:43:49.206Z,29.40
2023-04-16T18:46:19.485Z,29.00
2023-04-16T18:48:50.206Z,28.45
2023-04-16T18:51:20.238Z,28.07
2023-04-16T18:53:50.686Z,27.47
2023-04-16T18:56:20.967Z,27.06
2023-04-16T18:58:51.500Z,26.76
2023-04-16T19:01:21.656Z,26.42
2023-04-16T19:03:52.255Z,26.01
2023-04-16T19:06:22.260Z,25.65
2023-04-16T19:08:52.742Z,25.51
2023-04-16T19:11:22.800Z,25.18
2023-04-16T19:13:53.305Z,24.86
2023-04-16T19:16:23.372Z,24.65
2023-04-16T19:18:53.837Z,24.42
2023-04-16T19:21:23.903Z,24.25
2023-04-16T19:23:54.501Z,24.36
2023-04-16T19:26:24.535Z,24.12
2023-04-16T19:28:54.959Z,23.50
2023-04-16T19:31:27.197Z,23.20
2023-04-16T19:33:57.736Z,22.87
2023-04-16T19:36:28.343Z,22.49
2023-04-16T19:38:58.755Z,22.29
2023-04-16T19:41:28.738Z,21.99
2023-04-16T19:43:59.244Z,21.91
2023-04-16T19:46:29.352Z,21.75
2023-04-16T19:49:00.023Z,21.69
2023-04-16T19:51:30.150Z,21.65
2023-04-16T19:54:00.696Z,21.53
2023-04-16T19:56:30.733Z,21.60
2023-04-16T19:59:02.023Z,21.85
2023-04-16T20:01:35.150Z,21.60
2023-04-16T20:04:05.727Z,21.59
2023-04-16T20:06:35.912Z,21.79
2023-04-16T20:09:06.586Z,22.15
2023-04-16T20:11:36.665Z,22.28
2023-04-16T20:14:07.209Z,22.29
2023-04-16T20:16:39.706Z,22.45
2023-04-16T20:19:10.546Z,22.27
2023-04-16T20:21:41.588Z,22.11
2023-04-16T20:24:12.143Z,22.29
2023-04-16T20:26:42.290Z,22.29
2023-04-16T20:29:14.945Z,22.36
2023-04-16T20:31:47.036Z,22.53
2023-04-16T20:34:17.613Z,22.47
2023-04-16T20:36:47.706Z,22.34
2023-04-16T20:39:21.463Z,22.34
2023-04-16T20:41:57.696Z,22.33
2023-04-16T20:44:34.479Z,22.38
2023-04-16T20:47:04.521Z,22.34
2023-04-16T20:49:39.442Z,21.90
2023-04-16T20:52:09.497Z,21.71
2023-04-16T20:54:39.978Z,21.79
2023-04-16T20:57:10.141Z,21.60
2023-04-16T20:59:41.013Z,21.65
2023-04-16T21:02:11.091Z,21.85
2023-04-16T21:04:41.711Z,22.03
2023-04-16T21:07:11.799Z,22.13
2023-04-16T21:09:42.472Z,22.05
2023-04-16T21:12:13.254Z,22.10
2023-04-16T21:14:44.483Z,22.14
2023-04-16T21:17:14.727Z,22.04
2023-04-16T21:19:45.196Z,22.02
2023-04-16T21:22:15.215Z,21.93
2023-04-16T21:24:45.950Z,21.82
2023-04-16T21:27:18.813Z,21.82
2023-04-16T21:29:49.244Z,21.86
2023-04-16T21:32:19.242Z,22.00
2023-04-16T21:34:49.704Z,21.96
2023-04-16T21:37:19.530Z,21.96
2023-04-16T21:39:49.958Z,22.02
2023-04-16T21:42:19.948Z,22.04
2023-04-16T21:44:50.357Z,22.06
2023-04-16T21:47:20.616Z,22.03
2023-04-16T21:49:51.244Z,21.98
2023-04-16T21:52:21.255Z,22.00
2023-04-16T21:54:52.280Z,21.99
2023-04-16T21:57:22.326Z,22.00
2023-04-16T21:59:52.809Z,21.96
2023-04-16T22:02:23.475Z,22.03
2023-04-16T22:04:53.987Z,22.11
2023-04-16T22:07:24.074Z,21.97
2023-04-16T22:09:54.670Z,22.06
2023-04-16T22:12:24.669Z,22.09
2023-04-16T22:15:02.453Z,22.10
2023-04-16T22:17:33.315Z,22.04
2023-04-16T22:20:08.339Z,22.02
2023-04-16T22:22:38.457Z,21.98
2023-04-16T22:25:09.458Z,22.03
2023-04-16T22:27:39.947Z,22.06
2023-04-16T22:30:10.925Z,22.06
2023-04-16T22:32:40.984Z,22.08
2023-04-16T22:35:11.617Z,22.15
2023-04-16T22:37:41.690Z,22.20
2023-04-16T22:40:12.740Z,22.05
2023-04-16T22:42:42.802Z,22.14
2023-04-16T22:45:13.798Z,22.06
2023-04-16T22:47:44.363Z,22.15
2023-04-16T22:50:14.453Z,22.25
2023-04-16T22:52:44.897Z,22.23
2023-04-16T22:55:14.765Z,22.17
2023-04-16T22:57:45.247Z,22.12
2023-04-16T23:00:17.837Z,22.06
2023-04-16T23:02:48.726Z,22.27
2023-04-16T23:05:18.839Z,22.23
2023-04-16T23:07:48.783Z,21.94
2023-04-16T23:10:19.267Z,21.80
2023-04-16T23:12:54.388Z,21.70
2023-04-16T23:15:24.981Z,21.63
2023-04-16T23:17:55.054Z,21.67
2023-04-16T23:20:25.798Z,21.75
2023-04-16T23:22:55.961Z,21.79
2023-04-16T23:25:26.751Z,21.96
2023-04-16T23:27:57.850Z,21.79
2023-04-16T23:30:28.361Z,21.73
2023-04-16T23:32:58.487Z,21.70
2023-04-16T23:35:29.115Z,21.70
2023-04-16T23:37:59.149Z,21.65
2023-04-16T23:40:29.782Z,21.70
2023-04-16T23:42:59.998Z,21.67
2023-04-16T23:45:30.422Z,21.54
2023-04-16T23:48:00.528Z,21.46
2023-04-16T23:50:31.715Z,21.38
2023-04-16T23:53:01.761Z,21.42
2023-04-16T23:55:32.484Z,21.50
2023-04-16T23:58:02.501Z,21.68
